Time;durP1;ratioP1;P1;durP2;ratioP2;P2;SDS_P1;SDS_P2;PMS_P1;PMS_P2;Temp;Humidity;BMP_temperature;BMP_pressure;BME280_temperature;BME280_humidity;BME280_pressure;Samples;Min_cycle;Max_cycle;Signal;HPM_P1;HPM_P2
2024/01/22 00:01:09;;;;;;;5.20;2.77;;;5.80;99.90;;;;;;5070175;28;20208;-69
2024/01/22 00:03:35;;;;;;;3.80;2.30;;;5.90;99.90;;;;;;5050869;28;20189;-69
2024/01/22 00:06:00;;;;;;;2.53;2.20;;;5.90;99.90;;;;;;5070446;28;20235;-71
2024/01/22 00:08:27;;;;;;;4.80;2.70;;;5.80;99.90;;;;;;5052778;28;20201;-71
2024/01/22 00:10:53;;;;;;;3.20;2.40;;;5.90;99.90;;;;;;5052777;28;20205;-70
2024/01/22 00:13:19;;;;;;;4.13;2.50;;;5.90;99.90;;;;;;5047299;28;20489;-70
2024/01/22 00:15:44;;;;;;;3.93;2.50;;;5.90;99.90;;;;;;5068294;28;20614;-70
2024/01/22 00:18:10;;;;;;;3.03;2.13;;;5.90;99.90;;;;;;5069247;28;20190;-69
2024/01/22 00:20:37;;;;;;;3.47;2.10;;;5.90;99.90;;;;;;5072829;28;20221;-71
2024/01/22 00:23:03;;;;;;;6.23;2.97;;;6.00;99.90;;;;;;5065854;28;20405;-70
2024/01/22 00:25:30;;;;;;;3.47;2.33;;;6.00;99.90;;;;;;5053428;28;20458;-69
2024/01/22 00:27:55;;;;;;;4.50;2.40;;;6.00;99.90;;;;;;5065752;28;20209;-70
2024/01/22 00:30:21;;;;;;;3.80;1.83;;;6.00;99.90;;;;;;5065018;28;20427;-69
2024/01/22 00:32:47;;;;;;;3.00;2.07;;;6.00;99.90;;;;;;5065944;28;20268;-71
2024/01/22 00:35:12;;;;;;;5.47;3.00;;;6.00;99.90;;;;;;5075999;28;20196;-70
2024/01/22 00:37:38;;;;;;;2.87;1.93;;;6.00;99.90;;;;;;5073717;28;20596;-69
2024/01/22 00:40:04;;;;;;;4.23;2.47;;;6.00;99.90;;;;;;5068605;28;20529;-68
2024/01/22 00:42:29;;;;;;;3.13;2.43;;;6.10;99.90;;;;;;5058607;28;20630;-69
2024/01/22 00:44:55;;;;;;;7.63;2.47;;;6.10;99.90;;;;;;5064232;28;20414;-68
2024/01/22 00:47:21;;;;;;;2.70;2.03;;;6.10;99.90;;;;;;5061089;28;20235;-68
2024/01/22 00:49:46;;;;;;;5.27;2.97;;;6.20;99.90;;;;;;5065158;28;20448;-69
2024/01/22 00:52:12;;;;;;;4.50;1.80;;;6.20;99.90;;;;;;5056004;28;20495;-67
2024/01/22 00:54:38;;;;;;;2.43;1.63;;;6.20;99.90;;;;;;5065389;28;20223;-68
2024/01/22 00:57:04;;;;;;;5.47;2.07;;;6.30;99.90;;;;;;5070102;28;20648;-69
2024/01/22 00:59:29;;;;;;;4.17;2.50;;;6.30;99.90;;;;;;5070832;28;20219;-69
2024/01/22 01:01:55;;;;;;;3.80;2.60;;;6.40;99.90;;;;;;5055497;28;20499;-69
2024/01/22 01:04:20;;;;;;;6.67;2.47;;;6.50;99.90;;;;;;5059328;28;20526;-68
2024/01/22 01:06:46;;;;;;;3.40;2.00;;;6.60;99.90;;;;;;5064970;28;20644;-67
2024/01/22 01:09:12;;;;;;;3.77;2.07;;;6.60;99.90;;;;;;5065393;28;20237;-67
2024/01/22 01:11:37;;;;;;;2.50;1.53;;;6.60;99.90;;;;;;5063924;28;20190;-69
2024/01/22 01:14:03;;;;;;;7.10;2.10;;;6.70;99.90;;;;;;5073007;28;20165;-69
2024/01/22 01:16:28;;;;;;;3.80;1.80;;;6.80;99.90;;;;;;5064903;28;20232;-66
2024/01/22 01:18:54;;;;;;;7.00;1.83;;;6.90;99.90;;;;;;5062192;28;20189;-69
2024/01/22 01:21:23;;;;;;;2.83;1.73;;;7.00;99.90;;;;;;5041020;28;20222;-71
2024/01/22 01:23:52;;;;;;;3.80;1.60;;;7.00;99.90;;;;;;5070001;28;20284;-71
2024/01/22 01:26:18;;;;;;;5.73;2.00;;;7.00;99.90;;;;;;5053332;28;20464;-68
2024/01/22 01:28:43;;;;;;;3.87;1.70;;;7.00;99.90;;;;;;5074490;28;20447;-69
2024/01/22 01:31:09;;;;;;;4.73;1.90;;;7.00;99.90;;;;;;5064824;28;20614;-68
2024/01/22 01:33:35;;;;;;;3.40;1.83;;;7.00;99.90;;;;;;5063034;28;20221;-67
2024/01/22 01:36:01;;;;;;;3.40;1.97;;;7.00;99.90;;;;;;5058114;28;20729;-68
2024/01/22 01:38:26;;;;;;;2.30;1.10;;;7.10;99.90;;;;;;5068984;28;20510;-69
2024/01/22 01:40:52;;;;;;;4.43;2.13;;;7.20;99.90;;;;;;5071271;28;20291;-68
2024/01/22 01:43:37;;;;;;;2.43;1.87;;;7.20;99.90;;;;;;5059831;28;20202;-69
2024/01/22 01:46:03;;;;;;;3.87;2.00;;;7.20;99.90;;;;;;5067725;28;20427;-69
2024/01/22 01:48:28;;;;;;;5.60;1.77;;;7.20;99.90;;;;;;5055118;28;20188;-68
2024/01/22 01:50:56;;;;;;;3.70;1.43;;;7.20;99.90;;;;;;5059518;28;20194;-68
2024/01/22 01:53:23;;;;;;;2.00;1.80;;;7.30;99.90;;;;;;5061305;28;20189;-68
2024/01/22 01:55:50;;;;;;;3.20;1.73;;;7.20;99.90;;;;;;5056791;28;20438;-69
2024/01/22 01:58:18;;;;;;;1.93;1.30;;;7.30;99.90;;;;;;5066905;28;20903;-69
2024/01/22 02:00:47;;;;;;;4.70;1.83;;;7.30;99.90;;;;;;5058152;28;20464;-69
2024/01/22 02:03:13;;;;;;;4.27;2.00;;;7.30;99.90;;;;;;5061898;28;20880;-67
2024/01/22 02:05:38;;;;;;;2.30;1.40;;;7.40;99.90;;;;;;5066738;28;20462;-69
2024/01/22 02:08:04;;;;;;;4.03;1.67;;;7.40;99.90;;;;;;5054461;28;20482;-67
2024/01/22 02:10:30;;;;;;;2.07;1.30;;;7.50;99.90;;;;;;5054731;28;20197;-67
2024/01/22 02:12:56;;;;;;;3.67;1.60;;;7.40;99.90;;;;;;5072351;28;20426;-69
2024/01/22 02:15:21;;;;;;;1.97;1.47;;;7.50;99.90;;;;;;5069561;28;20301;-69
2024/01/22 02:17:47;;;;;;;2.10;1.30;;;7.50;99.90;;;;;;5054655;28;20212;-68
2024/01/22 02:20:13;;;;;;;3.03;1.30;;;7.50;99.90;;;;;;5060150;28;20217;-68
2024/01/22 02:22:39;;;;;;;3.77;1.40;;;7.50;99.90;;;;;;5058825;28;20187;-69
2024/01/22 02:25:05;;;;;;;1.70;1.37;;;7.60;99.90;;;;;;5074249;28;20403;-68
2024/01/22 02:27:31;;;;;;;4.00;1.40;;;7.60;99.90;;;;;;5074258;28;20189;-68
2024/01/22 02:29:57;;;;;;;4.20;2.07;;;7.60;99.90;;;;;;5069135;28;20423;-68
2024/01/22 02:32:22;;;;;;;2.80;1.60;;;7.60;99.90;;;;;;5060555;28;20455;-68
2024/01/22 02:34:48;;;;;;;1.93;1.60;;;7.60;99.90;;;;;;5061992;28;20287;-69
2024/01/22 02:37:15;;;;;;;2.97;1.30;;;7.60;99.90;;;;;;5074321;28;20205;-68
2024/01/22 02:39:41;;;;;;;2.63;1.33;;;7.60;99.90;;;;;;5074262;28;20193;-69
2024/01/22 02:42:07;;;;;;;4.47;1.60;;;7.70;99.90;;;;;;5070893;28;20453;-68
2024/01/22 02:44:35;;;;;;;2.33;1.60;;;7.70;99.90;;;;;;5062519;28;20651;-68
2024/01/22 02:47:02;;;;;;;1.87;1.23;;;7.70;99.90;;;;;;5065561;28;20212;-68
2024/01/22 02:49:28;;;;;;;3.30;1.33;;;7.70;99.90;;;;;;5055174;28;20467;-68
2024/01/22 02:51:54;;;;;;;1.83;1.17;;;7.70;99.90;;;;;;5056988;28;20431;-69
2024/01/22 02:54:19;;;;;;;2.00;1.43;;;7.70;99.90;;;;;;5071950;28;20811;-68
2024/01/22 02:56:45;;;;;;;1.67;1.00;;;7.80;99.90;;;;;;5048917;28;20299;-69
2024/01/22 02:59:11;;;;;;;1.50;1.10;;;7.80;99.90;;;;;;5073112;28;20189;-68
2024/01/22 03:01:37;;;;;;;3.90;1.60;;;7.80;99.90;;;;;;5067474;28;20216;-68
2024/01/22 03:04:03;;;;;;;3.00;2.10;;;7.80;99.90;;;;;;5067162;28;20744;-69
2024/01/22 03:06:28;;;;;;;2.10;1.50;;;7.70;99.90;;;;;;5073286;28;20211;-69
2024/01/22 03:08:54;;;;;;;3.00;1.43;;;7.80;99.90;;;;;;5063293;28;20192;-68
2024/01/22 03:11:19;;;;;;;1.57;1.10;;;7.80;99.90;;;;;;5066327;28;20538;-68
2024/01/22 03:13:45;;;;;;;1.47;1.17;;;7.80;99.90;;;;;;5063731;28;20193;-68
2024/01/22 03:16:10;;;;;;;4.67;1.53;;;7.90;99.90;;;;;;5069976;28;20200;-68
2024/01/22 03:18:36;;;;;;;2.07;1.43;;;7.90;99.90;;;;;;5065588;28;20242;-69
2024/01/22 03:21:03;;;;;;;3.40;1.67;;;7.90;99.90;;;;;;5060197;28;20649;-68
2024/01/22 03:23:29;;;;;;;1.90;1.10;;;7.90;99.90;;;;;;5069048;28;20177;-68
2024/01/22 03:25:55;;;;;;;1.47;1.07;;;8.00;99.90;;;;;;5072262;28;20514;-68
2024/01/22 03:28:21;;;;;;;4.50;1.97;;;8.00;99.90;;;;;;5064927;28;20203;-69
2024/01/22 03:30:46;;;;;;;2.40;1.40;;;8.00;99.90;;;;;;5063779;28;20261;-67
2024/01/22 03:33:12;;;;;;;1.77;1.00;;;8.10;99.90;;;;;;5060225;28;20427;-66
2024/01/22 03:35:38;;;;;;;3.20;1.40;;;8.10;99.90;;;;;;5057456;28;20224;-69
2024/01/22 03:38:04;;;;;;;2.07;1.00;;;8.10;99.90;;;;;;5069276;28;20450;-68
2024/01/22 03:40:30;;;;;;;3.10;1.10;;;8.10;99.90;;;;;;5052606;28;20521;-67
2024/01/22 03:42:56;;;;;;;4.40;1.17;;;8.10;99.90;;;;;;5068592;28;20574;-69
2024/01/22 03:45:21;;;;;;;1.60;1.00;;;8.10;99.90;;;;;;5072849;28;20474;-68
2024/01/22 03:47:47;;;;;;;1.63;1.20;;;8.20;99.90;;;;;;5070269;28;20281;-67
2024/01/22 03:50:12;;;;;;;1.60;1.00;;;8.20;99.90;;;;;;5070114;28;20184;-68
2024/01/22 03:52:38;;;;;;;2.27;1.20;;;8.20;99.90;;;;;;5047857;28;20303;-67
2024/01/22 03:55:04;;;;;;;1.43;1.03;;;8.20;99.90;;;;;;5073872;28;20221;-68
2024/01/22 03:57:30;;;;;;;1.63;0.97;;;8.30;99.90;;;;;;5073299;28;20190;-68
2024/01/22 03:59:55;;;;;;;1.70;1.00;;;8.30;99.90;;;;;;5070425;28;20527;-67
2024/01/22 04:02:21;;;;;;;1.47;0.80;;;8.30;99.90;;;;;;5069840;28;20189;-68
2024/01/22 04:04:47;;;;;;;2.90;1.10;;;8.30;99.90;;;;;;5072111;28;20540;-69
2024/01/22 04:07:12;;;;;;;3.33;1.00;;;8.30;99.90;;;;;;5070924;28;20193;-69
2024/01/22 04:09:38;;;;;;;3.50;1.00;;;8.30;99.90;;;;;;5070722;28;20188;-69
2024/01/22 04:12:04;;;;;;;1.87;0.90;;;8.30;99.90;;;;;;5073925;28;20451;-70
2024/01/22 04:14:30;;;;;;;2.90;1.47;;;8.30;99.90;;;;;;5070353;28;20539;-69
2024/01/22 04:16:55;;;;;;;3.77;1.20;;;8.40;99.90;;;;;;5073227;28;20219;-67
2024/01/22 04:19:21;;;;;;;2.33;1.00;;;8.40;99.90;;;;;;5071745;28;20570;-69
2024/01/22 04:21:47;;;;;;;1.20;0.70;;;8.40;99.90;;;;;;5070836;28;20185;-70
2024/01/22 04:24:13;;;;;;;1.93;0.70;;;8.50;99.90;;;;;;5071394;28;20204;-68
2024/01/22 04:26:39;;;;;;;3.23;1.10;;;8.50;99.90;;;;;;5073323;28;20424;-67
2024/01/22 04:29:05;;;;;;;1.80;1.00;;;8.40;99.90;;;;;;5075299;28;20450;-68
2024/01/22 04:31:31;;;;;;;1.20;0.80;;;8.30;99.90;;;;;;5070130;28;20797;-68
2024/01/22 04:33:56;;;;;;;1.00;0.60;;;8.10;99.90;;;;;;5073926;28;20204;-68
2024/01/22 04:36:22;;;;;;;1.27;0.93;;;8.00;99.90;;;;;;5071683;28;20295;-69
2024/01/22 04:38:47;;;;;;;2.70;1.13;;;7.80;99.90;;;;;;5074013;28;20180;-69
2024/01/22 04:41:13;;;;;;;1.00;0.80;;;7.70;99.90;;;;;;5072161;28;20213;-69
2024/01/22 04:43:42;;;;;;;5.17;1.63;;;7.70;99.90;;;;;;5074374;28;20448;-69
2024/01/22 04:46:08;;;;;;;1.83;1.00;;;7.70;99.90;;;;;;5076645;28;20205;-69
2024/01/22 04:48:34;;;;;;;1.37;0.90;;;7.60;99.90;;;;;;5072930;28;20867;-69
2024/01/22 04:50:59;;;;;;;1.40;1.00;;;7.60;99.90;;;;;;5069055;28;20546;-70
2024/01/22 04:53:25;;;;;;;3.83;1.00;;;7.60;99.90;;;;;;5073537;28;20193;-69
2024/01/22 04:55:50;;;;;;;1.40;1.00;;;7.60;99.90;;;;;;5073630;28;20399;-67
2024/01/22 04:58:16;;;;;;;0.90;0.60;;;7.50;99.90;;;;;;5065637;28;20185;-69
2024/01/22 05:00:42;;;;;;;4.43;1.73;;;7.60;99.90;;;;;;5071790;28;20205;-69
2024/01/22 05:03:07;;;;;;;2.53;1.30;;;7.50;99.90;;;;;;5076634;28;20212;-67
2024/01/22 05:05:34;;;;;;;2.90;1.80;;;7.50;99.90;;;;;;5067041;28;20452;-70
2024/01/22 05:08:00;;;;;;;2.30;1.37;;;7.50;99.90;;;;;;5066521;28;20193;-70
2024/01/22 05:10:26;;;;;;;2.07;1.40;;;7.50;99.90;;;;;;5062882;28;20439;-70
2024/01/22 05:12:52;;;;;;;7.70;1.53;;;7.50;99.90;;;;;;5069540;28;20457;-69
2024/01/22 05:15:18;;;;;;;3.00;1.60;;;7.60;99.90;;;;;;5067672;28;20217;-70
2024/01/22 05:17:43;;;;;;;4.90;1.37;;;7.60;99.90;;;;;;5074052;28;20718;-67
2024/01/22 05:20:10;;;;;;;3.43;1.50;;;7.50;99.90;;;;;;5059204;28;20208;-68
2024/01/22 05:22:35;;;;;;;1.27;0.80;;;7.60;99.90;;;;;;5068491;28;20557;-70
2024/01/22 05:25:01;;;;;;;3.30;1.00;;;7.60;99.90;;;;;;5072564;28;20404;-70
2024/01/22 05:27:30;;;;;;;5.40;1.10;;;7.70;99.90;;;;;;5071828;28;20185;-69
2024/01/22 05:29:55;;;;;;;2.50;1.20;;;7.60;99.90;;;;;;5059785;28;20205;-70
2024/01/22 05:32:21;;;;;;;1.40;1.07;;;7.70;99.90;;;;;;5075897;28;20631;-68
2024/01/22 05:34:47;;;;;;;1.60;1.00;;;7.70;99.90;;;;;;5061397;28;20199;-69
2024/01/22 05:37:12;;;;;;;2.80;1.63;;;7.70;99.90;;;;;;5071039;28;20209;-69
2024/01/22 05:39:38;;;;;;;2.83;1.20;;;7.70;99.90;;;;;;5058542;28;20235;-69
2024/01/22 05:42:04;;;;;;;1.40;0.90;;;7.70;99.90;;;;;;5068273;28;20282;-69
2024/01/22 05:44:30;;;;;;;1.93;0.93;;;7.70;99.90;;;;;;5068154;28;20186;-68
2024/01/22 05:46:56;;;;;;;3.63;1.47;;;7.80;99.90;;;;;;5071367;28;20440;-71
2024/01/22 05:49:21;;;;;;;2.13;1.43;;;7.80;99.90;;;;;;5075048;28;20400;-68
2024/01/22 05:51:47;;;;;;;1.93;0.90;;;7.90;99.90;;;;;;5065822;28;20189;-70
2024/01/22 05:54:14;;;;;;;2.60;0.80;;;7.90;99.90;;;;;;5072244;28;20190;-72
2024/01/22 05:56:39;;;;;;;1.47;1.00;;;7.90;99.90;;;;;;5074577;28;20204;-69
2024/01/22 05:59:05;;;;;;;3.20;1.67;;;7.90;99.90;;;;;;5059900;28;20495;-70
2024/01/22 06:01:31;;;;;;;1.93;1.20;;;8.00;99.90;;;;;;5069200;28;20259;-69
2024/01/22 06:03:57;;;;;;;1.47;1.03;;;8.00;99.90;;;;;;5049466;28;20185;-72
2024/01/22 06:06:23;;;;;;;3.63;1.60;;;8.00;99.90;;;;;;5058312;28;20205;-70
2024/01/22 06:08:49;;;;;;;2.57;1.13;;;8.10;99.90;;;;;;5076659;28;20466;-70
2024/01/22 06:11:17;;;;;;;1.90;1.37;;;8.10;99.90;;;;;;5073283;28;20193;-70
2024/01/22 06:13:43;;;;;;;2.43;1.47;;;8.10;99.90;;;;;;5067328;28;20420;-69
2024/01/22 06:16:14;;;;;;;1.70;1.10;;;8.10;99.90;;;;;;5068456;28;20431;-71
2024/01/22 06:18:41;;;;;;;2.27;1.20;;;8.20;99.90;;;;;;5065062;28;20447;-71
2024/01/22 06:21:08;;;;;;;2.90;1.20;;;8.20;99.90;;;;;;5071322;28;20471;-71
2024/01/22 06:23:34;;;;;;;1.80;1.07;;;8.30;99.90;;;;;;5072689;28;20837;-71
2024/01/22 06:26:01;;;;;;;1.43;0.83;;;8.30;99.90;;;;;;5066106;28;20443;-68
2024/01/22 06:28:28;;;;;;;1.53;1.03;;;8.40;99.90;;;;;;5063004;28;20443;-71
2024/01/22 06:30:54;;;;;;;2.47;0.80;;;8.50;99.90;;;;;;5075632;28;20506;-72
2024/01/22 06:33:21;;;;;;;1.53;0.60;;;8.70;99.90;;;;;;5056887;28;20425;-70
2024/01/22 06:35:47;;;;;;;1.20;0.80;;;8.90;99.90;;;;;;5062907;28;20448;-70
2024/01/22 06:38:14;;;;;;;3.67;1.00;;;9.10;99.90;;;;;;5066607;28;20432;-73
2024/01/22 06:40:40;;;;;;;1.40;0.90;;;9.20;99.90;;;;;;5065133;28;20959;-70
2024/01/22 06:43:07;;;;;;;1.60;0.97;;;9.40;99.90;;;;;;5059296;28;20570;-71
2024/01/22 06:45:33;;;;;;;1.00;0.70;;;9.60;99.90;;;;;;5076301;28;20438;-72
2024/01/22 06:47:58;;;;;;;1.60;1.00;;;9.60;99.90;;;;;;5068338;28;20412;-72
2024/01/22 06:50:24;;;;;;;0.90;0.70;;;9.80;99.90;;;;;;5066870;28;20197;-71
2024/01/22 06:52:50;;;;;;;1.77;0.60;;;9.80;99.90;;;;;;5043083;28;20269;-69
2024/01/22 06:55:16;;;;;;;1.80;0.60;;;9.80;99.90;;;;;;5064449;28;20209;-72
2024/01/22 06:57:42;;;;;;;1.50;0.80;;;9.90;99.90;;;;;;5057146;28;20181;-75
2024/01/22 07:00:08;;;;;;;3.33;1.23;;;9.90;99.90;;;;;;5058830;28;20471;-72
2024/01/22 07:02:35;;;;;;;2.90;0.80;;;10.00;99.90;;;;;;5066698;28;20247;-70
2024/01/22 07:05:01;;;;;;;3.37;1.20;;;10.10;99.90;;;;;;5071134;28;20412;-70
2024/01/22 07:07:27;;;;;;;2.30;0.83;;;10.20;99.90;;;;;;5049270;28;20413;-73
2024/01/22 07:09:53;;;;;;;1.90;1.17;;;10.20;99.90;;;;;;5074310;28;20427;-72
2024/01/22 07:12:19;;;;;;;0.90;0.60;;;10.30;99.90;;;;;;5046843;28;20268;-72
2024/01/22 07:14:46;;;;;;;1.53;0.80;;;10.40;99.90;;;;;;5063890;28;20896;-74
2024/01/22 07:17:13;;;;;;;1.43;0.83;;;10.40;99.90;;;;;;5076562;28;20790;-74
2024/01/22 07:19:39;;;;;;;2.77;1.10;;;10.50;99.90;;;;;;5062999;28;20465;-71
2024/01/22 07:22:04;;;;;;;2.47;1.07;;;10.40;99.90;;;;;;5062556;28;20447;-71
2024/01/22 07:24:31;;;;;;;1.37;0.87;;;10.40;99.90;;;;;;5063282;28;20522;-71
2024/01/22 07:26:57;;;;;;;1.53;0.90;;;10.50;99.90;;;;;;5066660;28;20227;-71
2024/01/22 07:29:24;;;;;;;1.67;1.00;;;10.40;99.90;;;;;;5069644;28;20413;-72
2024/01/22 07:31:50;;;;;;;1.50;0.83;;;10.50;99.90;;;;;;5068328;28;20494;-71
2024/01/22 07:34:16;;;;;;;2.23;1.07;;;10.50;99.90;;;;;;5065591;28;20419;-69
2024/01/22 07:36:41;;;;;;;1.63;0.90;;;10.50;99.90;;;;;;5063961;28;20200;-72
2024/01/22 07:39:07;;;;;;;1.80;0.90;;;10.50;99.90;;;;;;5065193;28;20185;-71
2024/01/22 07:41:38;;;;;;;1.43;0.90;;;10.60;99.90;;;;;;5067825;28;20516;-71
2024/01/22 07:44:04;;;;;;;1.37;0.90;;;10.70;99.90;;;;;;5077961;28;20507;-71
2024/01/22 07:46:30;;;;;;;1.67;0.93;;;10.70;99.90;;;;;;5060644;28;20784;-72
2024/01/22 07:48:56;;;;;;;1.53;0.97;;;10.70;99.90;;;;;;5064886;28;20555;-72
2024/01/22 07:51:23;;;;;;;1.57;0.90;;;10.70;99.90;;;;;;5052241;28;20508;-73
2024/01/22 07:53:48;;;;;;;3.17;1.13;;;10.70;99.90;;;;;;5052864;28;20431;-73
2024/01/22 07:56:14;;;;;;;3.13;1.03;;;10.70;99.90;;;;;;5076522;28;20468;-72
2024/01/22 07:58:40;;;;;;;2.20;0.90;;;10.70;99.90;;;;;;5056957;28;20274;-73
2024/01/22 08:01:07;;;;;;;1.10;0.77;;;10.60;99.90;;;;;;5071402;28;20213;-73
2024/01/22 08:03:34;;;;;;;1.67;1.00;;;10.50;99.90;;;;;;5061591;28;20424;-72
2024/01/22 08:06:00;;;;;;;0.93;0.60;;;10.60;99.90;;;;;;5065001;28;20452;-71
2024/01/22 08:08:27;;;;;;;3.90;0.97;;;10.60;99.90;;;;;;5051474;28;20752;-72
2024/01/22 08:10:52;;;;;;;2.60;1.17;;;10.60;99.90;;;;;;5068420;28;20828;-73
2024/01/22 08:13:18;;;;;;;1.20;0.70;;;10.60;99.90;;;;;;5066491;28;20422;-72
2024/01/22 08:15:44;;;;;;;1.30;0.83;;;10.60;99.90;;;;;;5070258;28;20202;-71
2024/01/22 08:18:10;;;;;;;1.40;0.80;;;10.50;99.90;;;;;;5069633;28;20205;-70
2024/01/22 08:20:36;;;;;;;4.03;0.87;;;10.60;99.90;;;;;;5075931;28;20204;-71
2024/01/22 08:23:02;;;;;;;1.77;0.80;;;10.60;99.90;;;;;;5070895;28;20418;-70
2024/01/22 08:25:27;;;;;;;1.10;0.73;;;10.60;99.90;;;;;;5062424;28;20277;-72
2024/01/22 08:27:54;;;;;;;1.57;0.80;;;10.60;99.90;;;;;;5065594;28;20187;-71
2024/01/22 08:30:21;;;;;;;1.70;0.83;;;10.60;99.90;;;;;;5072085;28;20593;-71
2024/01/22 08:32:48;;;;;;;1.70;0.90;;;10.60;99.90;;;;;;5067404;28;20452;-71
2024/01/22 08:35:16;;;;;;;1.80;1.07;;;10.60;99.90;;;;;;5068697;28;20432;-73
2024/01/22 08:37:45;;;;;;;1.40;0.90;;;10.50;99.90;;;;;;5069369;28;20467;-72
2024/01/22 08:40:11;;;;;;;1.20;0.60;;;10.60;99.90;;;;;;5068243;28;20455;-72
2024/01/22 08:42:37;;;;;;;1.70;1.00;;;10.70;99.90;;;;;;5068889;28;20460;-71
2024/01/22 08:45:04;;;;;;;1.43;0.97;;;10.70;99.90;;;;;;5069983;28;20199;-72
2024/01/22 08:47:30;;;;;;;1.10;0.60;;;10.70;99.90;;;;;;5067441;28;20438;-72
2024/01/22 08:49:55;;;;;;;2.60;0.90;;;10.70;99.90;;;;;;5066409;28;20428;-72
2024/01/22 08:52:21;;;;;;;1.23;0.73;;;10.70;99.90;;;;;;5070287;28;20526;-72
2024/01/22 08:54:47;;;;;;;1.50;0.93;;;10.70;99.90;;;;;;5080227;28;20199;-71
2024/01/22 08:57:13;;;;;;;1.20;0.80;;;10.70;99.90;;;;;;5074485;28;20249;-70
2024/01/22 08:59:39;;;;;;;2.43;1.00;;;10.80;99.90;;;;;;5070011;28;20447;-72
2024/01/22 09:02:04;;;;;;;3.13;1.17;;;10.70;99.90;;;;;;5068934;28;20279;-72
2024/01/22 09:04:42;;;;;;;1.57;1.00;;;10.70;99.90;;;;;;5059883;28;20185;-72
2024/01/22 09:07:08;;;;;;;3.53;1.00;;;10.70;99.90;;;;;;5062442;28;20216;-71
2024/01/22 09:09:34;;;;;;;3.83;0.97;;;10.80;99.90;;;;;;5060555;28;20419;-72
2024/01/22 09:11:59;;;;;;;1.10;0.73;;;10.80;99.90;;;;;;5067414;28;20170;-73
2024/01/22 09:14:25;;;;;;;1.43;0.90;;;10.90;99.90;;;;;;5063782;28;20520;-74
2024/01/22 09:16:50;;;;;;;1.63;1.07;;;11.00;99.90;;;;;;5050664;28;20204;-75
2024/01/22 09:19:16;;;;;;;2.80;1.77;;;11.00;99.90;;;;;;5058503;28;20188;-73
2024/01/22 09:21:43;;;;;;;1.90;1.00;;;11.00;99.90;;;;;;5062931;28;20314;-71
2024/01/22 09:24:08;;;;;;;2.33;1.00;;;11.10;99.90;;;;;;5067805;28;20193;-73
2024/01/22 09:26:35;;;;;;;2.47;0.90;;;11.10;99.90;;;;;;5062249;28;20560;-72
2024/01/22 09:29:01;;;;;;;5.20;1.70;;;11.20;99.90;;;;;;5071958;28;20172;-73
2024/01/22 09:31:27;;;;;;;2.50;1.10;;;11.30;99.90;;;;;;5060076;28;20490;-71
2024/01/22 09:33:53;;;;;;;2.87;1.07;;;11.30;99.90;;;;;;5069554;28;20331;-74
2024/01/22 09:36:19;;;;;;;2.53;1.10;;;11.40;99.90;;;;;;5069755;28;20512;-73
2024/01/22 09:38:45;;;;;;;3.70;1.27;;;11.60;99.90;;;;;;5063164;28;20476;-72
2024/01/22 09:41:12;;;;;;;3.97;1.20;;;11.70;99.90;;;;;;5073957;28;20212;-73
2024/01/22 09:43:40;;;;;;;2.93;1.47;;;11.80;99.90;;;;;;5040365;28;20192;-74
2024/01/22 09:46:06;;;;;;;2.00;1.10;;;11.90;99.90;;;;;;5053820;28;20486;-73
2024/01/22 09:48:35;;;;;;;4.30;2.33;;;12.00;99.90;;;;;;5062183;28;20420;-71
2024/01/22 09:51:01;;;;;;;7.97;2.30;;;12.10;99.90;;;;;;5063540;28;20420;-70
2024/01/22 09:53:28;;;;;;;7.90;1.83;;;12.10;99.90;;;;;;5063348;28;20455;-71
2024/01/22 09:55:55;;;;;;;3.97;1.40;;;12.20;99.90;;;;;;5049898;28;20212;-71
2024/01/22 09:58:26;;;;;;;8.47;1.77;;;12.30;99.90;;;;;;5063312;28;20416;-73
2024/01/22 10:00:52;;;;;;;9.47;2.80;;;12.40;99.90;;;;;;5065476;28;20451;-72
2024/01/22 10:03:18;;;;;;;3.70;1.50;;;12.50;99.90;;;;;;5026142;28;20777;-72
2024/01/22 10:05:45;;;;;;;6.17;1.53;;;12.40;99.90;;;;;;5057794;28;20443;-74
2024/01/22 10:08:11;;;;;;;5.90;2.33;;;12.40;99.90;;;;;;5066147;28;20166;-72
2024/01/22 10:10:37;;;;;;;5.33;1.40;;;12.30;99.90;;;;;;5060907;28;20424;-72
2024/01/22 10:13:04;;;;;;;3.50;1.27;;;12.20;99.90;;;;;;5065533;28;20615;-73
2024/01/22 10:15:32;;;;;;;2.80;1.47;;;12.20;99.90;;;;;;5060695;28;20463;-71
2024/01/22 10:18:11;;;;;;;3.83;1.63;;;12.10;99.90;;;;;;5067130;28;20443;-75
2024/01/22 10:20:38;;;;;;;4.63;1.50;;;12.10;99.90;;;;;;5049948;28;20461;-72
2024/01/22 10:23:04;;;;;;;5.23;2.00;;;12.10;99.90;;;;;;5052843;28;20511;-73
2024/01/22 10:25:30;;;;;;;2.73;1.50;;;12.20;99.90;;;;;;5073738;28;20561;-69
2024/01/22 10:28:16;;;;;;;3.30;1.40;;;12.10;99.90;;;;;;5073065;28;20193;-70
2024/01/22 10:30:44;;;;;;;2.17;1.03;;;12.10;99.90;;;;;;5064852;28;20435;-73
2024/01/22 10:33:16;;;;;;;2.40;0.80;;;12.00;99.90;;;;;;5048016;28;20424;-75
2024/01/22 10:35:44;;;;;;;1.70;0.73;;;11.90;99.90;;;;;;5076041;28;20436;-73
2024/01/22 10:38:16;;;;;;;1.00;0.70;;;11.90;99.90;;;;;;5059538;28;20573;-73
2024/01/22 10:40:43;;;;;;;5.83;0.90;;;12.00;99.90;;;;;;5076306;28;20459;-74
2024/01/22 10:43:26;;;;;;;2.70;1.10;;;12.10;99.90;;;;;;5046377;28;20487;-73
2024/01/22 10:45:56;;;;;;;1.43;0.63;;;12.10;99.90;;;;;;5066337;28;20444;-73
2024/01/22 10:48:24;;;;;;;2.47;0.80;;;12.10;99.90;;;;;;5062192;28;20423;-72
2024/01/22 10:50:51;;;;;;;2.30;0.83;;;12.10;99.90;;;;;;5062186;28;20416;-71
2024/01/22 10:53:20;;;;;;;1.60;0.80;;;12.10;99.90;;;;;;5066916;28;20408;-75
2024/01/22 10:56:05;;;;;;;1.40;0.93;;;12.10;99.90;;;;;;5064638;28;20714;-70
2024/01/22 10:58:41;;;;;;;1.00;0.60;;;12.10;99.90;;;;;;5061487;28;20732;-71
2024/01/22 11:01:17;;;;;;;2.27;1.10;;;12.10;99.90;;;;;;5063188;28;20446;-73
2024/01/22 11:03:48;;;;;;;1.23;0.70;;;12.10;99.90;;;;;;5050879;28;20413;-75
2024/01/22 11:06:20;;;;;;;1.10;0.70;;;12.10;99.90;;;;;;5068690;28;20513;-71
2024/01/22 11:08:49;;;;;;;3.03;1.10;;;12.10;99.90;;;;;;5062580;28;20558;-74
2024/01/22 11:11:20;;;;;;;1.20;0.70;;;12.10;99.90;;;;;;5059149;28;20707;-74
2024/01/22 11:13:51;;;;;;;1.30;0.60;;;12.00;99.90;;;;;;5066932;28;20444;-73
2024/01/22 11:16:20;;;;;;;2.00;0.60;;;12.10;99.90;;;;;;5057709;28;20459;-73
2024/01/22 11:18:55;;;;;;;1.10;0.60;;;12.10;99.90;;;;;;5031669;28;20474;-76
2024/01/22 11:21:21;;;;;;;1.87;0.87;;;12.10;99.90;;;;;;5047452;28;20458;-71
2024/01/22 11:24:19;;;;;;;1.67;1.23;;;12.10;99.90;;;;;;5066388;28;20427;-73
2024/01/22 11:27:04;;;;;;;3.47;0.87;;;12.00;99.90;;;;;;5069473;28;20223;-72
2024/01/22 11:29:32;;;;;;;3.60;1.37;;;12.10;99.90;;;;;;5055282;28;20919;-71
2024/01/22 11:32:26;;;;;;;2.20;0.93;;;12.10;99.90;;;;;;5076743;28;20428;-73
2024/01/22 11:35:00;;;;;;;6.23;3.83;;;12.10;99.90;;;;;;5064606;28;20469;-71
2024/01/22 11:37:34;;;;;;;1.80;0.80;;;12.00;99.90;;;;;;5049086;28;20836;-73
2024/01/22 11:40:00;;;;;;;2.20;1.03;;;11.90;99.90;;;;;;5068064;28;20479;-71
2024/01/22 11:42:28;;;;;;;1.00;0.60;;;11.90;99.90;;;;;;5069120;28;20757;-71
2024/01/22 11:45:06;;;;;;;1.43;0.73;;;11.80;99.90;;;;;;5074028;28;20189;-71
2024/01/22 11:47:32;;;;;;;1.57;0.70;;;11.80;99.90;;;;;;5072861;28;20526;-72
2024/01/22 11:50:04;;;;;;;1.83;0.80;;;11.90;99.90;;;;;;5081013;28;20456;-73
2024/01/22 11:52:30;;;;;;;1.97;1.17;;;11.80;99.90;;;;;;5071470;28;20428;-72
2024/01/22 11:55:04;;;;;;;2.10;1.10;;;11.80;99.90;;;;;;5077667;28;20481;-75
2024/01/22 11:57:38;;;;;;;1.53;0.90;;;11.80;99.90;;;;;;5069942;28;20414;-72
2024/01/22 12:00:09;;;;;;;2.30;1.27;;;11.80;99.90;;;;;;5072051;28;20465;-74
2024/01/22 12:02:40;;;;;;;2.53;1.23;;;11.90;99.90;;;;;;5063673;28;20422;-74
2024/01/22 12:05:12;;;;;;;1.60;1.00;;;11.90;99.90;;;;;;5054850;28;20416;-72
2024/01/22 12:07:46;;;;;;;3.33;0.80;;;11.90;99.90;;;;;;5052467;28;20424;-74
2024/01/22 12:10:28;;;;;;;3.97;1.67;;;11.80;99.90;;;;;;5051701;28;20427;-72
2024/01/22 12:12:59;;;;;;;6.17;1.30;;;11.80;99.90;;;;;;5053155;28;20434;-72
2024/01/22 12:15:28;;;;;;;3.50;1.30;;;11.70;99.90;;;;;;5049018;28;20486;-73
2024/01/22 12:17:54;;;;;;;3.50;1.27;;;11.70;99.90;;;;;;5049511;28;20495;-72
2024/01/22 12:20:22;;;;;;;6.30;1.50;;;11.70;99.90;;;;;;5047673;28;20460;-72
2024/01/22 12:23:01;;;;;;;7.30;1.73;;;11.60;99.90;;;;;;5049284;28;20421;-72
2024/01/22 12:25:37;;;;;;;4.80;1.17;;;11.70;99.90;;;;;;5072413;28;20472;-72
2024/01/22 12:28:10;;;;;;;4.30;1.33;;;11.70;99.90;;;;;;5078131;28;20465;-75
2024/01/22 12:30:36;;;;;;;5.80;1.87;;;11.70;99.90;;;;;;5086324;28;20422;-72
2024/01/22 12:33:02;;;;;;;6.13;1.53;;;11.50;99.90;;;;;;5078830;28;20534;-74
2024/01/22 12:35:28;;;;;;;5.53;1.90;;;11.20;99.90;;;;;;5078772;28;20447;-71
2024/01/22 12:37:54;;;;;;;2.67;1.70;;;11.00;99.90;;;;;;5075151;28;20188;-72
2024/01/22 12:40:20;;;;;;;4.13;1.57;;;10.70;99.90;;;;;;5053469;28;20270;-74
2024/01/22 12:42:47;;;;;;;5.03;1.80;;;10.50;99.90;;;;;;5046509;28;20504;-73
2024/01/22 12:45:17;;;;;;;4.50;1.50;;;10.30;99.90;;;;;;5043693;28;20428;-75
2024/01/22 12:47:46;;;;;;;4.00;1.50;;;10.30;99.90;;;;;;5072936;28;20433;-73
2024/01/22 12:50:12;;;;;;;3.57;1.30;;;10.30;99.90;;;;;;5076417;28;20456;-74
2024/01/22 12:52:39;;;;;;;5.03;1.57;;;10.30;99.90;;;;;;5068446;28;20612;-73